Quick Links (Output Below):   Max & Min Temps   /   Climate Reports   /   Zone Forecasts
River Forecasts   /   Forestry Forecasts   /   Aviation Forecasts   /   Radars   /   Features

Terminal Aerodrome Forecast (Mountain Home)

Pick a Site:
Arkadelphia | El Dorado | Fayetteville | Fort Smith | Harrison | Highfill | Hot Springs | Jonesboro
Little Rock | Monticello | Mountain Home | Pine Bluff | Texarkana
 Forecast 

KBPK 012320Z 0200/0224 31010G20KT P6SM BKN015 OVC035
     FM021200 34008G16KT P6SM SCT025 BKN035
     FM021900 VRB05KT P6SM SKC=


 Latest METARs (Observations) 
How to Decode METARs
01Z KBPK 020053Z AUTO 31009G18KT 9SM OVC015 M01/M04 A2994 RMK AO2
         SLP142 T10061039 $
         
00Z KBPK 012353Z AUTO 30010G25KT 9SM OVC015 00/M03 A2990 RMK AO2
         SLP128 60001 T00001028 10083 20000 51028 $
         
***** Today's Observations (Above) *****


23Z KBPK 012253Z AUTO 30008G21KT 7SM BKN015 OVC021 02/M01 A2986 RMK
         AO2 SLP115 T00171011 $
         
22Z KBPK 012153Z AUTO 31009G24KT 280V340 9SM BKN013 OVC020 03/01 A2981
         RMK AO2 SLP099 T00280006 $
         
21Z KBPK 012053Z AUTO 31013G24KT 10SM OVC012 04/02 A2978 RMK AO2 PK
         WND 30028/2012 SLP086 60001 T00390017 53016 $
         
20Z KBPK 011953Z AUTO 29010G20KT 270V330 10SM BKN016 OVC022 07/04
         A2974 RMK AO2 RAE34B41E52 SLP072 P0000 T00670044 $
         
19Z KBPK 011853Z AUTO 29009G17KT 250V320 4SM -RA BR BKN014 OVC025
         08/07 A2972 RMK AO2 RAB26 SLP066 P0001 T00780067 $
         
18Z KBPK 011753Z AUTO 28006KT 8SM FEW009 BKN019 OVC030 08/07 A2973 RMK
         AO2 RAB25E52 SLP068 P0000 60000 T00830067 10100 20056 58004
         $
         
17Z KBPK 011653Z AUTO 24005KT 10SM SCT024 BKN030 OVC037 09/08 A2973
         RMK AO2 SLP069 T00940083 $
         
16Z KBPK 011553Z AUTO 23005KT 9SM FEW020 OVC028 08/08 A2974 RMK AO2
         RAB34E49 SLP071 P0000 T00830078 $
         
***** Yesterday's Observations (Above) *****


Back to Main Page
http://www.srh.noaa.gov/lzk/qfcst.php

USA.gov is the U.S. government's official web portal to all federal, state and local government web resources and services.